Columbia, New Jersey
Current Conditions -  °F | °C
As of 7:53 PM on Friday 24 Oct 2014 (Local Time) from KMPO Reporting Station
Clear Clear  
Wind Chill: 53°   Ceiling: Unl
Heat Index: 53°   Visibility: 10mi
Dew Point: 35°   Wind: 12mph
Humidity: 50%   Direction: 310°NW
Pressure: 29.86"   Gusts: 21mph
Location:  40.93°N, 75.09°W
Report Text: KMPO 242353Z AUTO 31010G18KT 10SM CLR 12/02 A2986 RMK AO2 SLP115 T01170017 10156 20117 53011
Loading
Personal Weather Stations






























Interactive Weather Map
Tropical Storm Tracking
New forecast layout! Learn more

10-Day Weather Forecast

Advertisements
Track Severe Weather on mobile